createdAt,value
2023-04-08T00:00:28.352Z,1002.2
2023-04-08T00:01:45.350Z,1002.2
2023-04-08T00:03:02.376Z,1002.2
2023-04-08T00:04:19.403Z,1002.2
2023-04-08T00:05:36.306Z,1002.2
2023-04-08T00:06:53.277Z,1002.2
2023-04-08T00:08:10.351Z,1002.2
2023-04-08T00:09:27.275Z,1002.2
2023-04-08T00:10:44.268Z,1002.2
2023-04-08T00:12:01.318Z,1002.2
2023-04-08T00:13:18.920Z,1002.2
2023-04-08T00:14:36.282Z,1002.1
2023-04-08T00:15:53.340Z,1002.2
2023-04-08T00:17:10.390Z,1002.2
2023-04-08T00:18:27.325Z,1002.2
2023-04-08T00:19:44.290Z,1002.3
2023-04-08T00:21:01.293Z,1002.3
2023-04-08T00:22:18.693Z,1002.3
2023-04-08T00:23:36.360Z,1002.2
2023-04-08T00:24:53.293Z,1002.2
2023-04-08T00:26:10.297Z,1002.2
2023-04-08T00:27:27.320Z,1002.2
2023-04-08T00:28:44.294Z,1002.2
2023-04-08T00:30:01.400Z,1002.3
2023-04-08T00:31:18.432Z,1002.3
2023-04-08T00:32:35.320Z,1002.3
2023-04-08T00:33:52.327Z,1002.4
2023-04-08T00:35:09.363Z,1002.3
2023-04-08T00:36:26.319Z,1002.4
2023-04-08T00:37:43.304Z,1002.3
2023-04-08T00:39:00.304Z,1002.4
2023-04-08T00:40:17.392Z,1002.4
2023-04-08T00:41:34.311Z,1002.4
2023-04-08T00:42:51.361Z,1002.3
2023-04-08T00:44:08.311Z,1002.3
2023-04-08T00:45:25.332Z,1002.3
2023-04-08T00:46:42.429Z,1002.3
2023-04-08T00:47:59.358Z,1002.3
2023-04-08T00:49:16.438Z,1002.4
2023-04-08T00:50:33.857Z,1002.4
2023-04-08T00:51:50.589Z,1002.4
2023-04-08T00:53:07.646Z,1002.4
2023-04-08T00:54:25.458Z,1002.5
2023-04-08T00:55:44.403Z,1002.5
2023-04-08T00:57:02.345Z,1002.4
2023-04-08T00:58:19.406Z,1002.4
2023-04-08T00:59:36.349Z,1002.4
2023-04-08T01:00:53.341Z,1002.4
2023-04-08T01:02:10.401Z,1002.5
2023-04-08T01:03:27.486Z,1002.5
2023-04-08T01:04:44.378Z,1002.5
2023-04-08T01:06:01.365Z,1002.5
2023-04-08T01:07:18.488Z,1002.5
2023-04-08T01:08:35.411Z,1002.5
2023-04-08T01:09:52.362Z,1002.5
2023-04-08T01:11:09.358Z,1002.5
2023-04-08T01:12:26.497Z,1002.5
2023-04-08T01:13:43.393Z,1002.5
2023-04-08T01:15:00.372Z,1002.5
2023-04-08T01:16:17.421Z,1002.5
2023-04-08T01:17:34.451Z,1002.6
2023-04-08T01:18:51.576Z,1002.6
2023-04-08T01:20:08.387Z,1002.6
2023-04-08T01:21:25.516Z,1002.6
2023-04-08T01:22:42.376Z,1002.7
2023-04-08T01:23:59.752Z,1002.7
2023-04-08T01:25:16.432Z,1002.7
2023-04-08T01:26:33.428Z,1002.7
2023-04-08T01:27:50.473Z,1002.7
2023-04-08T01:29:07.384Z,1002.7
2023-04-08T01:30:24.407Z,1002.7
2023-04-08T01:31:41.430Z,1002.8
2023-04-08T01:32:58.453Z,1002.7
2023-04-08T01:34:15.413Z,1002.7
2023-04-08T01:35:32.451Z,1002.7
2023-04-08T01:36:49.386Z,1002.7
2023-04-08T01:38:06.421Z,1002.7
2023-04-08T01:39:23.446Z,1002.7
2023-04-08T01:40:40.401Z,1002.7
2023-04-08T01:41:57.410Z,1002.8
2023-04-08T01:43:14.419Z,1002.8
2023-04-08T01:44:31.700Z,1002.8
2023-04-08T01:45:48.885Z,1002.8
2023-04-08T01:47:05.480Z,1002.8
2023-04-08T01:48:22.439Z,1002.8
2023-04-08T01:49:39.426Z,1002.8
2023-04-08T01:50:56.455Z,1002.9
2023-04-08T01:52:13.411Z,1002.9
2023-04-08T01:53:30.440Z,1002.9
2023-04-08T01:54:47.478Z,1002.9
2023-04-08T01:56:04.418Z,1002.9
2023-04-08T01:57:21.768Z,1003
2023-04-08T01:58:38.434Z,1003
2023-04-08T01:59:55.711Z,1002.9
2023-04-08T02:01:12.417Z,1002.9
2023-04-08T02:02:29.534Z,1002.9
2023-04-08T02:03:50.643Z,1003
2023-04-08T02:05:05.439Z,1003
2023-04-08T02:06:22.456Z,1003.1
2023-04-08T02:07:39.477Z,1003.1
2023-04-08T02:08:56.441Z,1003.1
2023-04-08T02:10:13.451Z,1003
2023-04-08T02:11:30.454Z,1003.1
2023-04-08T02:12:47.490Z,1003.1
2023-04-08T02:14:04.454Z,1003.2
2023-04-08T02:15:21.480Z,1003.2
2023-04-08T02:16:38.586Z,1003.1
2023-04-08T02:17:56.170Z,1003.1
2023-04-08T02:19:13.510Z,1003.1
2023-04-08T02:20:30.470Z,1003.1
2023-04-08T02:21:47.474Z,1003.1
2023-04-08T02:23:04.455Z,1003.1
2023-04-08T02:24:21.526Z,1003.1
2023-04-08T02:25:38.467Z,1003.1
2023-04-08T02:26:55.477Z,1003.2
2023-04-08T02:28:12.487Z,1003.2
2023-04-08T02:29:29.517Z,1003.2
2023-04-08T02:30:46.486Z,1003.2
2023-04-08T02:32:03.490Z,1003.2
2023-04-08T02:33:20.463Z,1003.2
2023-04-08T02:34:37.499Z,1003.2
2023-04-08T02:35:54.690Z,1003.2
2023-04-08T02:37:11.508Z,1003.2
2023-04-08T02:38:28.474Z,1003.2
2023-04-08T02:39:45.564Z,1003.2
2023-04-08T02:41:02.503Z,1003.3
2023-04-08T02:42:19.512Z,1003.2
2023-04-08T02:43:36.482Z,1003.2
2023-04-08T02:44:53.990Z,1003.3
2023-04-08T02:46:11.543Z,1003.3
2023-04-08T02:47:28.489Z,1003.2
2023-04-08T02:48:45.482Z,1003.2
2023-04-08T02:50:02.695Z,1003.3
2023-04-08T02:51:19.493Z,1003.3
2023-04-08T02:52:36.521Z,1003.3
2023-04-08T02:53:53.498Z,1003.3
2023-04-08T02:55:10.565Z,1003.3
2023-04-08T02:56:27.488Z,1003.4
2023-04-08T02:57:44.502Z,1003.5
2023-04-08T02:59:01.510Z,1003.4
2023-04-08T03:00:18.609Z,1003.5
2023-04-08T03:01:35.622Z,1003.5
2023-04-08T03:02:52.615Z,1003.5
2023-04-08T03:04:09.511Z,1003.6
2023-04-08T03:05:26.593Z,1003.6
2023-04-08T03:06:43.530Z,1003.6
2023-04-08T03:08:00.575Z,1003.6
2023-04-08T03:09:17.500Z,1003.6
2023-04-08T03:10:34.579Z,1003.6
2023-04-08T03:11:51.506Z,1003.6
2023-04-08T03:13:08.525Z,1003.6
2023-04-08T03:14:25.790Z,1003.6
2023-04-08T03:15:42.557Z,1003.6
2023-04-08T03:16:59.651Z,1003.7
2023-04-08T03:18:16.544Z,1003.6
2023-04-08T03:19:33.526Z,1003.6
2023-04-08T03:20:50.562Z,1003.6
2023-04-08T03:22:07.545Z,1003.7
2023-04-08T03:23:24.560Z,1003.7
2023-04-08T03:24:41.766Z,1003.7
2023-04-08T03:25:58.549Z,1003.7
2023-04-08T03:27:15.607Z,1003.6
2023-04-08T03:28:32.550Z,1003.6
2023-04-08T03:29:49.545Z,1003.6
2023-04-08T03:31:06.554Z,1003.6
2023-04-08T03:32:23.597Z,1003.7
2023-04-08T03:33:40.574Z,1003.7
2023-04-08T03:34:57.566Z,1003.7
2023-04-08T03:36:14.598Z,1003.7
2023-04-08T03:37:31.551Z,1003.7
2023-04-08T03:38:48.758Z,1003.7
2023-04-08T03:40:05.652Z,1003.8
2023-04-08T03:41:22.581Z,1003.8
2023-04-08T03:42:39.569Z,1003.8
2023-04-08T03:43:56.575Z,1003.8
2023-04-08T03:45:13.599Z,1003.8
2023-04-08T03:46:31.256Z,1003.8
2023-04-08T03:47:48.631Z,1003.8
2023-04-08T03:49:05.580Z,1003.8
2023-04-08T03:50:22.559Z,1003.8
2023-04-08T03:51:39.601Z,1003.8
2023-04-08T03:52:56.669Z,1003.8
2023-04-08T03:54:13.595Z,1003.9
2023-04-08T03:55:30.652Z,1003.9
2023-04-08T03:56:47.598Z,1003.9
2023-04-08T03:58:04.630Z,1003.9
2023-04-08T03:59:21.566Z,1003.9
2023-04-08T04:00:38.691Z,1004
2023-04-08T04:01:56.016Z,1004
2023-04-08T04:03:13.695Z,1004
2023-04-08T04:04:30.593Z,1004
2023-04-08T04:05:47.629Z,1004.1
2023-04-08T04:07:04.617Z,1004.1
2023-04-08T04:08:21.625Z,1004.1
2023-04-08T04:09:38.617Z,1004.1
2023-04-08T04:10:55.662Z,1004.1
2023-04-08T04:12:12.622Z,1004.1
2023-04-08T04:13:29.746Z,1004.1
2023-04-08T04:14:46.601Z,1004.1
2023-04-08T04:16:03.752Z,1004.2
2023-04-08T04:17:20.611Z,1004.2
2023-04-08T04:18:37.655Z,1004.1
2023-04-08T04:19:54.615Z,1004.2
2023-04-08T04:21:11.668Z,1004.2
2023-04-08T04:22:28.624Z,1004.2
2023-04-08T04:23:45.614Z,1004.2
2023-04-08T04:25:02.713Z,1004.2
2023-04-08T04:26:19.641Z,1004.2
2023-04-08T04:27:36.663Z,1004.2
2023-04-08T04:28:53.645Z,1004.2
2023-04-08T04:30:10.648Z,1004.3
2023-04-08T04:31:27.695Z,1004.3
2023-04-08T04:32:44.685Z,1004.3
2023-04-08T04:34:02.095Z,1004.3
2023-04-08T04:35:18.662Z,1004.3
2023-04-08T04:36:35.628Z,1004.3
2023-04-08T04:37:52.714Z,1004.3
2023-04-08T04:39:09.687Z,1004.4
2023-04-08T04:40:26.728Z,1004.4
2023-04-08T04:41:43.648Z,1004.4
2023-04-08T04:43:00.748Z,1004.4
2023-04-08T04:44:17.703Z,1004.4
2023-04-08T04:45:34.652Z,1004.5
2023-04-08T04:46:51.773Z,1004.5
2023-04-08T04:48:08.649Z,1004.6
2023-04-08T04:49:25.635Z,1004.5
2023-04-08T04:50:42.702Z,1004.5
2023-04-08T04:51:59.703Z,1004.6
2023-04-08T04:53:16.810Z,1004.6
2023-04-08T04:54:33.663Z,1004.6
2023-04-08T04:55:50.684Z,1004.6
2023-04-08T04:57:07.715Z,1004.7
2023-04-08T04:58:24.660Z,1004.7
2023-04-08T04:59:41.692Z,1004.7
2023-04-08T05:00:58.677Z,1004.7
2023-04-08T05:02:15.723Z,1004.6
2023-04-08T05:03:32.784Z,1004.7
2023-04-08T05:04:49.686Z,1004.7
2023-04-08T05:06:06.713Z,1004.7
2023-04-08T05:07:23.729Z,1004.7
2023-04-08T05:08:40.748Z,1004.7
2023-04-08T05:09:58.736Z,1004.7
2023-04-08T05:11:15.714Z,1004.8
2023-04-08T05:12:32.779Z,1004.7
2023-04-08T05:13:49.691Z,1004.8
2023-04-08T05:15:06.711Z,1004.8
2023-04-08T05:16:23.707Z,1004.8
2023-04-08T05:17:40.791Z,1004.9
2023-04-08T05:18:57.693Z,1004.9
2023-04-08T05:20:15.869Z,1004.9
2023-04-08T05:21:31.720Z,1005
2023-04-08T05:22:48.736Z,1005
2023-04-08T05:24:05.738Z,1005
2023-04-08T05:25:22.738Z,1005
2023-04-08T05:26:39.738Z,1005.1
2023-04-08T05:27:56.760Z,1005
2023-04-08T05:29:13.733Z,1005
2023-04-08T05:30:30.719Z,1005
2023-04-08T05:31:47.847Z,1005
2023-04-08T05:33:04.768Z,1005
2023-04-08T05:34:21.717Z,1005
2023-04-08T05:35:38.821Z,1005.1
2023-04-08T05:36:55.725Z,1005.1
2023-04-08T05:38:13.075Z,1005.1
2023-04-08T05:39:29.807Z,1005.1
2023-04-08T05:40:46.784Z,1005.1
2023-04-08T05:42:03.753Z,1005.1
2023-04-08T05:43:20.786Z,1005.1
2023-04-08T05:44:37.767Z,1005
2023-04-08T05:45:54.760Z,1005
2023-04-08T05:47:11.864Z,1005.1
2023-04-08T05:48:28.753Z,1005.2
2023-04-08T05:49:46.451Z,1005.2
2023-04-08T05:51:03.767Z,1005.2
2023-04-08T05:52:20.759Z,1005.2
2023-04-08T05:53:37.808Z,1005.2
2023-04-08T05:54:55.141Z,1005.2
2023-04-08T05:56:12.761Z,1005.2
2023-04-08T05:57:29.756Z,1005.2
2023-04-08T05:58:46.801Z,1005.3
2023-04-08T06:00:03.820Z,1005.3
2023-04-08T06:01:20.752Z,1005.2
2023-04-08T06:02:38.194Z,1005.2
2023-04-08T06:03:54.822Z,1005.3
2023-04-08T06:05:11.895Z,1005.2
2023-04-08T06:06:28.783Z,1005.3
2023-04-08T06:07:45.738Z,1005.3
2023-04-08T06:09:02.776Z,1005.3
2023-04-08T06:10:19.788Z,1005.3
2023-04-08T06:11:36.758Z,1005.2
2023-04-08T06:12:53.922Z,1005.2
2023-04-08T06:14:10.748Z,1005.2
2023-04-08T06:15:27.826Z,1005.2
2023-04-08T06:16:44.840Z,1005.3
2023-04-08T06:18:01.782Z,1005.3
2023-04-08T06:19:18.784Z,1005
2023-04-08T06:20:35.831Z,1005.1
2023-04-08T06:21:52.807Z,1005.3
2023-04-08T06:23:09.781Z,1005.3
2023-04-08T06:24:26.794Z,1005.4
2023-04-08T06:25:44.188Z,1005.1
2023-04-08T06:27:00.810Z,1005.2
2023-04-08T06:28:17.798Z,1005.3
2023-04-08T06:29:34.781Z,1005.3
2023-04-08T06:30:51.992Z,1005.4
2023-04-08T06:32:09.117Z,1005.5
2023-04-08T06:33:26.454Z,1005.4
2023-04-08T06:34:43.811Z,1005.4
2023-04-08T06:36:00.813Z,1005.5
2023-04-08T06:37:17.831Z,1005.5
2023-04-08T06:38:34.809Z,1005.6
2023-04-08T06:39:51.790Z,1005.5
2023-04-08T06:41:08.801Z,1005.6
2023-04-08T06:42:25.875Z,1005.6
2023-04-08T06:43:42.863Z,1005.6
2023-04-08T06:44:59.820Z,1005.6
2023-04-08T06:46:16.850Z,1005.6
2023-04-08T06:47:34.093Z,1005.7
2023-04-08T06:48:50.883Z,1005.7
2023-04-08T06:50:07.811Z,1005.7
2023-04-08T06:51:24.840Z,1005.7
2023-04-08T06:52:41.893Z,1005.8
2023-04-08T06:53:58.826Z,1005.8
2023-04-08T06:55:16.060Z,1005.8
2023-04-08T06:56:32.817Z,1005.8
2023-04-08T06:57:49.847Z,1005.8
2023-04-08T06:59:06.864Z,1005.9
2023-04-08T07:00:23.920Z,1005.9
2023-04-08T07:01:40.839Z,1006
2023-04-08T07:02:58.099Z,1006
2023-04-08T07:04:14.969Z,1006
2023-04-08T07:05:31.842Z,1006
2023-04-08T07:06:48.831Z,1006
2023-04-08T07:08:05.899Z,1006
2023-04-08T07:09:22.838Z,1006
2023-04-08T07:10:39.848Z,1006.1
2023-04-08T07:11:56.876Z,1006.1
2023-04-08T07:13:14.258Z,1006.1
2023-04-08T07:14:31.880Z,1006.1
2023-04-08T07:15:48.879Z,1006.1
2023-04-08T07:17:05.919Z,1006.1
2023-04-08T07:18:22.935Z,1006.1
2023-04-08T07:19:39.844Z,1006.1
2023-04-08T07:20:56.927Z,1006.1
2023-04-08T07:22:13.856Z,1006.1
2023-04-08T07:23:30.927Z,1006.1
2023-04-08T07:24:47.872Z,1006.1
2023-04-08T07:26:04.877Z,1006.1
2023-04-08T07:27:21.930Z,1006.1
2023-04-08T07:28:38.889Z,1006.1
2023-04-08T07:29:55.905Z,1006.1
2023-04-08T07:31:12.891Z,1006.1
2023-04-08T07:32:29.907Z,1006.2
2023-04-08T07:33:46.966Z,1006.2
2023-04-08T07:35:03.876Z,1006.2
2023-04-08T07:36:20.983Z,1006.2
2023-04-08T07:37:37.873Z,1006.3
2023-04-08T07:38:54.872Z,1006.2
2023-04-08T07:40:11.878Z,1006.2
2023-04-08T07:41:28.902Z,1006.3
2023-04-08T07:42:45.916Z,1006.3
2023-04-08T07:44:06.101Z,1006.4
2023-04-08T07:45:22.956Z,1006.4
2023-04-08T07:46:39.929Z,1006.4
2023-04-08T07:47:56.950Z,1006.4
2023-04-08T07:49:13.955Z,1006.4
2023-04-08T07:50:30.897Z,1006.4
2023-04-08T07:51:47.899Z,1006.4
2023-04-08T07:53:04.887Z,1006.4
2023-04-08T07:54:22.076Z,1006.4
2023-04-08T07:55:38.924Z,1006.5
2023-04-08T07:56:55.902Z,1006.4
2023-04-08T07:58:12.904Z,1006.4
2023-04-08T07:59:30.300Z,1006.4
2023-04-08T08:00:47.933Z,1006.4
2023-04-08T08:02:04.971Z,1006.4
2023-04-08T08:03:21.953Z,1006.5
2023-04-08T08:04:39.567Z,1006.5
2023-04-08T08:05:56.917Z,1006.5
2023-04-08T08:07:13.898Z,1006.5
2023-04-08T08:08:30.903Z,1006.5
2023-04-08T08:09:47.990Z,1006.5
2023-04-08T08:11:04.922Z,1006.5
2023-04-08T08:12:22.003Z,1006.5
2023-04-08T08:13:38.937Z,1006.5
2023-04-08T08:14:55.954Z,1006.5
2023-04-08T08:16:12.980Z,1006.5
2023-04-08T08:17:29.947Z,1006.5
2023-04-08T08:18:46.908Z,1006.5
2023-04-08T08:20:03.980Z,1006.5
2023-04-08T08:21:20.944Z,1006.5
2023-04-08T08:22:47.091Z,1006.6
2023-04-08T08:23:54.921Z,1006.5
2023-04-08T08:25:12.113Z,1006.5
2023-04-08T08:26:28.955Z,1006.5
2023-04-08T08:27:46.030Z,1006.6
2023-04-08T08:29:03.024Z,1006.6
2023-04-08T08:30:19.974Z,1006.6
2023-04-08T08:31:37.094Z,1006.6
2023-04-08T08:32:54.202Z,1006.6
2023-04-08T08:34:12.008Z,1006.6
2023-04-08T08:35:28.989Z,1006.6
2023-04-08T08:36:45.962Z,1006.6
2023-04-08T08:38:03.035Z,1006.6
2023-04-08T08:39:19.972Z,1006.6
2023-04-08T08:40:36.960Z,1006.6
2023-04-08T08:41:53.963Z,1006.7
2023-04-08T08:43:11.058Z,1006.7
2023-04-08T08:44:27.947Z,1006.7
2023-04-08T08:45:44.954Z,1006.7
2023-04-08T08:47:02.145Z,1006.7
2023-04-08T08:48:18.999Z,1006.7
2023-04-08T08:49:36.052Z,1006.7
2023-04-08T08:50:52.987Z,1006.8
2023-04-08T08:52:10.000Z,1006.8
2023-04-08T08:53:26.962Z,1006.8
2023-04-08T08:54:43.990Z,1006.8
2023-04-08T08:56:16.970Z,1006.8
2023-04-08T08:57:18.011Z,1006.9
2023-04-08T08:58:34.994Z,1006.9
2023-04-08T08:59:52.389Z,1006.9
2023-04-08T09:01:08.996Z,1006.9
2023-04-08T09:02:26.152Z,1006.9
2023-04-08T09:03:43.125Z,1007
2023-04-08T09:05:00.166Z,1007
2023-04-08T09:06:17.017Z,1006.9
2023-04-08T09:07:34.128Z,1006.8
2023-04-08T09:08:51.021Z,1007
2023-04-08T09:10:08.081Z,1007
2023-04-08T09:11:25.845Z,1007
2023-04-08T09:12:43.010Z,1007
2023-04-08T09:14:00.046Z,1007.1
2023-04-08T09:15:17.062Z,1007.1
2023-04-08T09:16:34.082Z,1007.1
2023-04-08T09:17:51.108Z,1007.1
2023-04-08T09:19:08.039Z,1007.2
2023-04-08T09:20:25.003Z,1007.1
2023-04-08T09:21:42.058Z,1007
2023-04-08T09:22:59.047Z,1007
2023-04-08T09:24:17.753Z,1007
2023-04-08T09:25:33.111Z,1007.1
2023-04-08T09:26:50.021Z,1007
2023-04-08T09:28:07.086Z,1007
2023-04-08T09:29:25.837Z,1007
2023-04-08T09:30:41.032Z,1007
2023-04-08T09:31:58.204Z,1007.1
2023-04-08T09:33:15.045Z,1007.1
2023-04-08T09:34:32.101Z,1007.1
2023-04-08T09:35:49.107Z,1007.2
2023-04-08T09:37:06.047Z,1007.2
2023-04-08T09:38:23.042Z,1007.2
2023-04-08T09:39:40.021Z,1007.2
2023-04-08T09:40:57.089Z,1007.3
2023-04-08T09:42:14.034Z,1007.2
2023-04-08T09:43:31.051Z,1007.2
2023-04-08T09:44:48.057Z,1007.2
2023-04-08T09:46:05.263Z,1007.2
2023-04-08T09:47:22.148Z,1007.2
2023-04-08T09:48:39.174Z,1007.2
2023-04-08T09:49:56.103Z,1007.2
2023-04-08T09:51:13.106Z,1007.2
2023-04-08T09:52:30.082Z,1007.2
2023-04-08T09:53:47.098Z,1007.3
2023-04-08T09:55:04.106Z,1007.3
2023-04-08T09:56:21.092Z,1007.3
2023-04-08T09:57:38.082Z,1007.3
2023-04-08T09:58:55.115Z,1007.3
2023-04-08T10:00:12.128Z,1007.3
2023-04-08T10:01:29.127Z,1007.3
2023-04-08T10:02:46.143Z,1007.3
2023-04-08T10:04:03.156Z,1007.3
2023-04-08T10:05:20.103Z,1007.3
2023-04-08T10:06:37.128Z,1007.3
2023-04-08T10:07:54.066Z,1007.3
2023-04-08T10:09:11.194Z,1007.4
2023-04-08T10:10:28.102Z,1007
2023-04-08T10:11:45.137Z,1007.2
2023-04-08T10:13:02.088Z,1007.3
2023-04-08T10:14:19.086Z,1007.3
2023-04-08T10:15:36.098Z,1007.4
2023-04-08T10:16:53.165Z,1007.4
2023-04-08T10:18:10.093Z,1007.4
2023-04-08T10:19:27.135Z,1007.5
2023-04-08T10:20:44.099Z,1007.4
2023-04-08T10:22:01.146Z,1007.4
2023-04-08T10:23:18.201Z,1007.4
2023-04-08T10:24:35.113Z,1007.4
2023-04-08T10:25:52.104Z,1007.4
2023-04-08T10:27:09.117Z,1007.4
2023-04-08T10:28:26.133Z,1007.4
2023-04-08T10:29:43.138Z,1007.4
2023-04-08T10:31:00.185Z,1007.4
2023-04-08T10:32:17.135Z,1007.3
2023-04-08T10:33:34.173Z,1007.3
2023-04-08T10:34:51.163Z,1007.4
2023-04-08T10:36:08.134Z,1007.4
2023-04-08T10:37:25.120Z,1007.4
2023-04-08T10:38:42.219Z,1007.4
2023-04-08T10:39:59.130Z,1007.4
2023-04-08T10:41:16.131Z,1007.4
2023-04-08T10:42:33.116Z,1007.4
2023-04-08T10:43:50.408Z,1007.4
2023-04-08T10:45:07.253Z,1007.4
2023-04-08T10:46:24.129Z,1007.4
2023-04-08T10:47:41.250Z,1007.4
2023-04-08T10:48:58.145Z,1007.4
2023-04-08T10:50:15.201Z,1007.4
2023-04-08T10:51:33.630Z,1007.4
2023-04-08T10:52:49.203Z,1007.4
2023-04-08T10:54:06.152Z,1007.4
2023-04-08T10:55:23.319Z,1007.4
2023-04-08T10:56:40.172Z,1007.4
2023-04-08T10:57:58.328Z,1007.4
2023-04-08T10:59:14.152Z,1007.4
2023-04-08T11:00:31.142Z,1007.4
2023-04-08T11:01:48.185Z,1007.4
2023-04-08T11:03:05.292Z,1007.4
2023-04-08T11:04:22.235Z,1007.5
2023-04-08T11:05:39.209Z,1007.5
2023-04-08T11:06:56.272Z,1007.5
2023-04-08T11:08:13.288Z,1007.5
2023-04-08T11:09:30.169Z,1007.5
2023-04-08T11:10:47.333Z,1007.5
2023-04-08T11:12:04.220Z,1007.5
2023-04-08T11:13:21.200Z,1007.5
2023-04-08T11:14:38.799Z,1007.5
2023-04-08T11:15:56.295Z,1007.5
2023-04-08T11:17:14.605Z,1007.5
2023-04-08T11:18:31.199Z,1007.5
2023-04-08T11:19:48.201Z,1007.4
2023-04-08T11:21:05.216Z,1007.5
2023-04-08T11:22:22.172Z,1007.5
2023-04-08T11:23:39.251Z,1007.6
2023-04-08T11:24:56.208Z,1007.5
2023-04-08T11:26:13.286Z,1007.5
2023-04-08T11:27:31.261Z,1007.5
2023-04-08T11:28:48.267Z,1007.4
2023-04-08T11:30:05.230Z,1007.4
2023-04-08T11:31:24.493Z,1007.4
2023-04-08T11:32:39.841Z,1007.4
2023-04-08T11:33:58.923Z,1007.4
2023-04-08T11:35:17.120Z,1007.4
2023-04-08T11:36:37.097Z,1007.3
2023-04-08T11:37:56.379Z,1007.4
2023-04-08T11:39:14.578Z,1007.4
2023-04-08T11:40:32.571Z,1007.4
2023-04-08T11:41:52.754Z,1007.4
2023-04-08T11:43:11.997Z,1007.4
2023-04-08T11:44:29.379Z,1007.4
2023-04-08T11:45:48.316Z,1007.5
2023-04-08T11:47:06.517Z,1007.5
2023-04-08T11:48:24.565Z,1007.4
2023-04-08T11:49:41.438Z,1007.4
2023-04-08T11:50:58.846Z,1007.5
2023-04-08T11:52:17.445Z,1007.4
2023-04-08T11:53:34.709Z,1007.5
2023-04-08T11:54:53.216Z,1007.5
2023-04-08T11:56:13.782Z,1007.4
2023-04-08T11:57:32.473Z,1007.4
2023-04-08T11:58:50.703Z,1007.4
2023-04-08T12:00:09.547Z,1007.4
2023-04-08T12:01:27.549Z,1007.5
2023-04-08T12:02:45.753Z,1007.4
2023-04-08T12:04:04.737Z,1007.5
2023-04-08T12:05:23.914Z,1007.4
2023-04-08T12:06:42.685Z,1007.4
2023-04-08T12:08:03.373Z,1007.5
2023-04-08T12:09:22.546Z,1007.5
2023-04-08T12:10:41.571Z,1007.5
2023-04-08T12:12:00.049Z,1007.5
2023-04-08T12:13:18.657Z,1007.5
2023-04-08T12:14:37.644Z,1007.5
2023-04-08T12:15:56.336Z,1007.6
2023-04-08T12:17:14.923Z,1007.6
2023-04-08T12:18:32.654Z,1007.6
2023-04-08T12:19:50.651Z,1007.6
2023-04-08T12:21:10.406Z,1007.6
2023-04-08T12:22:28.596Z,1007.5
2023-04-08T12:23:46.882Z,1007.5
2023-04-08T12:25:05.346Z,1007.5
2023-04-08T12:26:25.088Z,1007.4
2023-04-08T12:27:42.613Z,1007.5
2023-04-08T12:29:01.337Z,1007.5
2023-04-08T12:30:21.398Z,1007.5
2023-04-08T12:31:41.557Z,1007.6
2023-04-08T12:33:02.613Z,1007.6
2023-04-08T12:34:22.274Z,1007.5
2023-04-08T12:35:40.916Z,1007.6
2023-04-08T12:36:59.055Z,1007.6
2023-04-08T12:38:16.699Z,1007.4
2023-04-08T12:39:35.231Z,1007.4
2023-04-08T12:40:54.453Z,1007.4
2023-04-08T12:42:13.487Z,1007.4
2023-04-08T12:43:31.139Z,1007.4
2023-04-08T12:44:50.940Z,1007.3
2023-04-08T12:46:08.976Z,1007.3
2023-04-08T12:47:28.706Z,1007.4
2023-04-08T12:48:47.528Z,1007.4
2023-04-08T12:50:05.939Z,1007.4
2023-04-08T12:51:23.810Z,1007.4
2023-04-08T12:52:44.244Z,1007.4
2023-04-08T12:54:02.414Z,1007.4
2023-04-08T12:55:20.812Z,1007.4
2023-04-08T12:56:39.740Z,1007.4
2023-04-08T12:57:57.536Z,1007.4
2023-04-08T12:59:15.590Z,1007.4
2023-04-08T13:00:33.020Z,1007.3
2023-04-08T13:01:51.188Z,1007.4
2023-04-08T13:03:09.683Z,1007.3
2023-04-08T13:04:29.637Z,1007.4
2023-04-08T13:05:47.584Z,1007.3
2023-04-08T13:07:04.578Z,1007.3
2023-04-08T13:08:22.325Z,1007.4
2023-04-08T13:09:40.558Z,1007.4
2023-04-08T13:10:57.898Z,1007.5
2023-04-08T13:12:17.230Z,1007.5
2023-04-08T13:13:34.864Z,1007.4
2023-04-08T13:14:52.989Z,1007.4
2023-04-08T13:16:11.264Z,1007.4
2023-04-08T13:17:30.048Z,1007.4
2023-04-08T13:18:49.468Z,1007.4
2023-04-08T13:20:06.770Z,1007.4
2023-04-08T13:21:24.666Z,1007.3
2023-04-08T13:22:44.719Z,1007.3
2023-04-08T13:24:03.861Z,1007.3
2023-04-08T13:25:22.622Z,1007.4
2023-04-08T13:26:40.237Z,1007.4
2023-04-08T13:27:59.300Z,1007.3
2023-04-08T13:29:17.490Z,1007.3
2023-04-08T13:30:36.110Z,1007.3
2023-04-08T13:31:53.700Z,1007.4
2023-04-08T13:33:11.665Z,1007.4
2023-04-08T13:34:28.665Z,1007.4
2023-04-08T13:35:46.948Z,1007.4
2023-04-08T13:37:05.058Z,1007.3
2023-04-08T13:38:23.820Z,1007.3
2023-04-08T13:39:42.744Z,1007.3
2023-04-08T13:40:59.947Z,1007.3
2023-04-08T13:42:18.622Z,1007.3
2023-04-08T13:43:36.759Z,1007.4
2023-04-08T13:44:55.778Z,1007.5
2023-04-08T13:46:13.901Z,1007.5
2023-04-08T13:47:32.680Z,1007.5
2023-04-08T13:48:52.078Z,1007.5
2023-04-08T13:50:11.263Z,1007.5
2023-04-08T13:51:29.360Z,1007.5
2023-04-08T13:52:47.159Z,1007.5
2023-04-08T13:54:04.734Z,1007.5
2023-04-08T13:55:22.688Z,1007.5
2023-04-08T13:56:40.035Z,1007.5
2023-04-08T13:57:58.662Z,1007.6
2023-04-08T13:59:16.631Z,1007.6
2023-04-08T14:00:33.986Z,1007.5
2023-04-08T14:01:52.961Z,1007.5
2023-04-08T14:03:10.589Z,1007.6
2023-04-08T14:04:28.750Z,1007.5
2023-04-08T14:05:46.692Z,1007.5
2023-04-08T14:07:03.992Z,1007.4
2023-04-08T14:08:22.160Z,1007.4
2023-04-08T14:09:40.904Z,1007.4
2023-04-08T14:10:58.699Z,1007.5
2023-04-08T14:12:16.698Z,1007.5
2023-04-08T14:13:33.703Z,1007.4
2023-04-08T14:14:50.925Z,1007.5
2023-04-08T14:16:08.848Z,1007.5
2023-04-08T14:17:26.994Z,1007.4
2023-04-08T14:18:44.704Z,1007.4
2023-04-08T14:20:02.807Z,1007.4
2023-04-08T14:21:20.989Z,1007.5
2023-04-08T14:22:38.601Z,1007.5
2023-04-08T14:23:55.850Z,1007.4
2023-04-08T14:25:15.647Z,1007.5
2023-04-08T14:26:32.849Z,1007.5
2023-04-08T14:27:57.157Z,1007.5
2023-04-08T14:29:10.780Z,1007.5
2023-04-08T14:30:27.819Z,1007.5
2023-04-08T14:31:44.741Z,1007.5
2023-04-08T14:33:02.148Z,1007.5
2023-04-08T14:34:20.125Z,1007.5
2023-04-08T14:35:37.719Z,1007.5
2023-04-08T14:36:56.678Z,1007.5
2023-04-08T14:38:14.250Z,1007.5
2023-04-08T14:39:33.084Z,1007.4
2023-04-08T14:40:51.079Z,1007.5
2023-04-08T14:42:10.583Z,1007.5
2023-04-08T14:43:28.698Z,1007.5
2023-04-08T14:44:46.717Z,1007.5
2023-04-08T14:46:05.403Z,1007.5
2023-04-08T14:47:25.361Z,1007.5
2023-04-08T14:48:43.191Z,1007.5
2023-04-08T14:50:02.109Z,1007.5
2023-04-08T14:51:19.676Z,1007.5
2023-04-08T14:52:36.578Z,1007.4
2023-04-08T14:53:53.725Z,1007.5
2023-04-08T14:55:11.503Z,1007.4
2023-04-08T14:56:30.185Z,1007.5
2023-04-08T14:57:47.735Z,1007.5
2023-04-08T14:59:05.414Z,1007.5
2023-04-08T15:00:22.862Z,1007.5
2023-04-08T15:01:40.742Z,1007.4
2023-04-08T15:02:58.139Z,1007.4
2023-04-08T15:04:16.527Z,1007.4
2023-04-08T15:05:35.513Z,1007.5
2023-04-08T15:06:50.655Z,1007.5
2023-04-08T15:08:07.706Z,1007.5
2023-04-08T15:09:24.801Z,1007.5
2023-04-08T15:10:41.660Z,1007.5
2023-04-08T15:11:58.722Z,1007.5
2023-04-08T15:13:15.714Z,1007.5
2023-04-08T15:14:32.695Z,1007.6
2023-04-08T15:15:49.773Z,1007.6
2023-04-08T15:17:06.916Z,1007.6
2023-04-08T15:18:23.766Z,1007.6
2023-04-08T15:19:40.839Z,1007.6
2023-04-08T15:20:59.740Z,1007.6
2023-04-08T15:22:16.632Z,1007.5
2023-04-08T15:23:33.798Z,1007.6
2023-04-08T15:24:51.939Z,1007.6
2023-04-08T15:26:08.832Z,1007.6
2023-04-08T15:27:27.665Z,1007.6
2023-04-08T15:28:44.808Z,1007.7
2023-04-08T15:30:02.583Z,1007.6
2023-04-08T15:31:20.765Z,1007.7
2023-04-08T15:32:39.615Z,1007.7
2023-04-08T15:33:56.762Z,1007.7
2023-04-08T15:35:13.777Z,1007.7
2023-04-08T15:36:31.089Z,1007.6
2023-04-08T15:37:48.699Z,1007.6
2023-04-08T15:39:05.935Z,1007.7
2023-04-08T15:40:24.688Z,1007.7
2023-04-08T15:41:42.182Z,1007.7
2023-04-08T15:42:59.895Z,1007.7
2023-04-08T15:44:18.081Z,1007.7
2023-04-08T15:45:36.072Z,1007.7
2023-04-08T15:46:54.683Z,1007.7
2023-04-08T15:48:12.138Z,1007.7
2023-04-08T15:49:29.731Z,1007.7
2023-04-08T15:50:47.700Z,1007.7
2023-04-08T15:52:05.796Z,1007.7
2023-04-08T15:53:22.845Z,1007.7
2023-04-08T15:54:42.823Z,1007.7
2023-04-08T15:56:00.754Z,1007.7
2023-04-08T15:57:17.839Z,1007.7
2023-04-08T15:58:34.815Z,1007.7
2023-04-08T15:59:51.817Z,1007.6
2023-04-08T16:01:10.228Z,1007.7
2023-04-08T16:02:28.652Z,1007.7
2023-04-08T16:03:47.894Z,1007.6
2023-04-08T16:05:04.765Z,1007.7
2023-04-08T16:06:21.933Z,1007.6
2023-04-08T16:07:38.759Z,1007.7
2023-04-08T16:08:57.149Z,1007.7